Time;durP1;ratioP1;P1;durP2;ratioP2;P2;SDS_P1;SDS_P2;PMS_P1;PMS_P2;Temp;Humidity;BMP_temperature;BMP_pressure;BME280_temperature;BME280_humidity;BME280_pressure;Samples;Min_cycle;Max_cycle;Signal;HPM_P1;HPM_P2
2021/09/07 00:01:17;;;;;;;8.77;7.97;;;;;;;19.84;65.74;101000.59;5006882;28;20973;-82
2021/09/07 00:03:43;;;;;;;9.87;8.87;;;;;;;19.83;65.52;100995.38;5000662;28;20393;-82
2021/09/07 00:06:08;;;;;;;14.83;9.23;;;;;;;19.82;66.02;100997.31;5001171;28;20482;-82
2021/09/07 00:08:33;;;;;;;10.23;8.70;;;;;;;19.78;66.04;100995.44;4995005;28;20493;-82
2021/09/07 00:10:59;;;;;;;9.40;8.40;;;;;;;19.78;65.82;100999.03;4990066;28;20484;-82
2021/09/07 00:13:24;;;;;;;10.10;9.10;;;;;;;19.74;66.33;100992.47;4992366;28;20399;-82
2021/09/07 00:15:49;;;;;;;10.37;8.67;;;;;;;19.69;66.26;100990.56;4991681;28;20406;-82
2021/09/07 00:18:15;;;;;;;10.75;8.52;;;;;;;19.66;66.31;100993.09;4991376;28;20498;-82
2021/09/07 00:20:40;;;;;;;10.10;9.23;;;;;;;19.63;66.62;100989.00;5004583;28;20406;-83
2021/09/07 00:23:06;;;;;;;9.17;8.13;;;;;;;19.65;66.19;100985.97;4999550;28;20434;-82
2021/09/07 00:25:31;;;;;;;10.17;8.90;;;;;;;19.64;66.35;100987.91;4992732;28;20501;-82
2021/09/07 00:27:56;;;;;;;12.60;8.63;;;;;;;19.64;66.29;100976.91;4996246;28;20417;-82
2021/09/07 00:30:21;;;;;;;9.77;8.77;;;;;;;19.63;66.12;100974.44;4996937;28;20441;-83
2021/09/07 00:32:47;;;;;;;8.30;7.55;;;;;;;19.61;64.86;100980.25;5008447;28;20738;-83
2021/09/07 00:35:12;;;;;;;9.17;7.57;;;;;;;19.55;64.56;100978.66;5003972;28;20507;-83
2021/09/07 00:37:39;;;;;;;8.33;7.57;;;;;;;19.50;64.46;100983.38;5002185;28;20398;-82
2021/09/07 00:40:06;;;;;;;8.45;7.63;;;;;;;19.46;63.97;100982.34;5008976;28;20514;-82
2021/09/07 00:42:36;;;;;;;8.73;7.82;;;;;;;19.45;64.04;100977.94;4994820;28;20399;-82
2021/09/07 00:45:07;;;;;;;11.23;7.95;;;;;;;19.37;63.81;100973.03;4994841;28;20406;-82
2021/09/07 00:47:32;;;;;;;11.55;7.88;;;;;;;19.34;64.02;100979.13;5007864;28;20408;-82
2021/09/07 00:49:58;;;;;;;9.53;8.50;;;;;;;19.26;64.16;100977.00;4997204;28;20429;-83
2021/09/07 00:52:27;;;;;;;8.75;7.95;;;;;;;19.24;64.40;100980.03;4999508;28;20389;-83
2021/09/07 00:54:54;;;;;;;8.68;7.88;;;;;;;19.24;64.74;100976.47;5005394;28;20415;-82
2021/09/07 00:57:22;;;;;;;10.82;7.88;;;;;;;19.21;64.50;100983.38;4994839;28;20421;-82
2021/09/07 00:59:50;;;;;;;11.93;7.63;;;;;;;19.18;64.61;100972.97;4993945;28;20445;-82
2021/09/07 01:02:16;;;;;;;8.95;7.53;;;;;;;19.17;64.37;100976.81;4999536;28;20389;-82
2021/09/07 01:04:41;;;;;;;8.33;7.43;;;;;;;19.15;64.50;100974.38;5005573;28;20779;-82
2021/09/07 01:07:07;;;;;;;9.50;7.93;;;;;;;19.15;64.72;100974.38;4995750;28;20454;-82
2021/09/07 01:09:32;;;;;;;9.17;7.93;;;;;;;19.16;64.43;100973.22;4994498;28;20410;-82
2021/09/07 01:11:57;;;;;;;8.30;7.37;;;;;;;19.15;64.12;100970.78;4998499;28;20385;-82
2021/09/07 01:14:28;;;;;;;9.67;8.23;;;;;;;19.11;64.32;100970.53;5005120;28;20395;-83
2021/09/07 01:16:53;;;;;;;10.77;8.47;;;;;;;19.08;64.52;100965.63;4996490;28;20402;-82
2021/09/07 01:19:18;;;;;;;9.67;8.67;;;;;;;19.09;65.31;100977.44;5009788;28;20411;-83
2021/09/07 01:21:43;;;;;;;10.53;8.77;;;;;;;19.10;64.77;100970.81;5012630;28;20767;-83
2021/09/07 01:24:09;;;;;;;9.70;8.30;;;;;;;19.09;63.86;100969.22;5009790;28;20463;-82
2021/09/07 01:26:34;;;;;;;8.27;7.43;;;;;;;19.02;63.26;100960.47;5011806;28;20425;-82
2021/09/07 01:29:00;;;;;;;11.60;8.18;;;;;;;18.96;63.14;100967.94;5007386;28;20883;-83
2021/09/07 01:31:25;;;;;;;9.15;7.63;;;;;;;18.93;63.13;100964.97;4996928;28;20426;-82
2021/09/07 01:33:51;;;;;;;12.23;8.53;;;;;;;18.83;63.54;100965.03;4995100;28;20486;-83
2021/09/07 01:36:16;;;;;;;10.50;8.33;;;;;;;18.74;64.05;100967.56;5002906;28;20489;-83
2021/09/07 01:38:42;;;;;;;9.50;8.48;;;;;;;18.64;64.16;100960.22;4993901;28;20502;-82
2021/09/07 01:41:07;;;;;;;11.23;8.43;;;;;;;18.60;64.55;100967.41;4995083;28;20505;-83
2021/09/07 01:43:32;;;;;;;9.77;8.77;;;;;;;18.60;64.63;100963.84;4999833;28;20406;-82
2021/09/07 01:45:58;;;;;;;9.40;8.60;;;;;;;18.59;64.73;100957.53;4993439;28;20477;-83
2021/09/07 01:48:24;;;;;;;12.03;8.60;;;;;;;18.57;64.76;100962.47;4993712;28;20434;-82
2021/09/07 01:50:50;;;;;;;10.18;8.57;;;;;;;18.58;64.63;100964.13;5009709;28;20408;-82
2021/09/07 01:53:16;;;;;;;9.90;8.48;;;;;;;18.54;64.88;100963.03;5005688;28;20418;-82
2021/09/07 01:55:42;;;;;;;9.27;8.38;;;;;;;18.53;64.52;100968.84;4993760;28;20383;-82
2021/09/07 01:58:07;;;;;;;9.73;8.73;;;;;;;18.52;64.73;100968.00;4992421;28;20393;-82
2021/09/07 02:00:33;;;;;;;10.30;9.00;;;;;;;18.52;64.83;100964.44;5009055;28;20872;-82
2021/09/07 02:02:59;;;;;;;9.23;8.30;;;;;;;18.53;65.22;100969.66;5002566;28;20407;-82
2021/09/07 02:05:24;;;;;;;11.27;8.63;;;;;;;18.52;65.33;100959.78;4992586;28;20912;-82
2021/09/07 02:07:50;;;;;;;9.27;8.33;;;;;;;18.52;65.45;100956.22;4993954;28;20398;-82
2021/09/07 02:10:16;;;;;;;10.15;9.10;;;;;;;18.50;65.19;100958.44;5007637;28;20481;-82
2021/09/07 02:12:42;;;;;;;11.82;9.10;;;;;;;18.49;65.23;100956.75;4995618;28;20414;-82
2021/09/07 02:15:08;;;;;;;9.60;8.70;;;;;;;18.50;65.39;100963.91;4992161;28;20399;-82
2021/09/07 02:17:34;;;;;;;8.90;7.40;;;;;;;18.48;64.29;100958.66;5002964;28;20420;-82
2021/09/07 02:19:59;;;;;;;10.00;8.20;;;;;;;18.47;64.26;100961.72;4999109;28;20488;-82
2021/09/07 02:22:25;;;;;;;10.25;8.25;;;;;;;18.47;64.22;100964.47;4995405;28;20420;-82
2021/09/07 02:24:52;;;;;;;9.60;8.60;;;;;;;18.46;64.74;100966.38;5011474;28;20408;-82
2021/09/07 02:27:17;;;;;;;9.38;8.35;;;;;;;18.43;64.30;100966.13;5021663;28;20488;-82
2021/09/07 02:29:43;;;;;;;10.83;8.60;;;;;;;18.36;64.33;100962.88;5000402;28;20594;-82
2021/09/07 02:32:08;;;;;;;10.63;8.87;;;;;;;18.29;64.73;100971.41;4994604;28;20917;-82
2021/09/07 02:34:34;;;;;;;12.50;8.90;;;;;;;18.25;65.25;100962.13;4994032;28;20457;-82
2021/09/07 02:36:59;;;;;;;10.02;9.00;;;;;;;18.21;65.23;100960.25;4992970;28;20406;-82
2021/09/07 02:39:25;;;;;;;10.48;9.35;;;;;;;18.18;65.33;100958.84;5004275;28;20407;-82
2021/09/07 02:41:50;;;;;;;10.87;9.70;;;;;;;18.15;65.36;100968.47;5005656;28;20431;-82
2021/09/07 02:44:15;;;;;;;10.57;9.57;;;;;;;18.13;65.28;100970.69;5001999;28;20401;-82
2021/09/07 02:46:41;;;;;;;11.73;9.43;;;;;;;18.06;65.40;100969.34;5006029;28;20452;-82
2021/09/07 02:49:06;;;;;;;11.40;8.47;;;;;;;18.03;65.25;100973.50;4990372;28;20411;-82
2021/09/07 02:51:31;;;;;;;10.67;9.57;;;;;;;18.03;64.98;100965.25;5005689;28;20413;-82
2021/09/07 02:53:57;;;;;;;12.60;9.23;;;;;;;17.99;64.72;100966.09;5010374;28;20407;-82
2021/09/07 02:56:22;;;;;;;9.43;8.43;;;;;;;17.95;64.46;100963.09;5008548;28;20917;-82
2021/09/07 02:58:47;;;;;;;10.40;9.40;;;;;;;17.91;64.49;100966.69;5003586;28;20422;-82
2021/09/07 03:01:13;;;;;;;11.83;9.53;;;;;;;17.85;64.67;100967.81;4993677;28;20763;-82
2021/09/07 03:03:38;;;;;;;10.73;8.93;;;;;;;17.79;64.87;100963.44;5021978;28;20405;-82
2021/09/07 03:06:04;;;;;;;9.90;8.50;;;;;;;17.76;65.23;100958.53;4992524;28;20402;-82
2021/09/07 03:08:29;;;;;;;11.93;9.00;;;;;;;17.74;65.25;100953.34;4993516;28;20769;-82
2021/09/07 03:10:55;;;;;;;9.90;8.85;;;;;;;17.72;65.50;100955.50;4992251;28;20450;-82
2021/09/07 03:13:21;;;;;;;10.55;9.55;;;;;;;17.74;65.49;100953.34;4998141;28;20417;-82
2021/09/07 03:15:47;;;;;;;10.48;9.38;;;;;;;17.72;65.70;100952.78;4992378;28;20406;-82
2021/09/07 03:18:13;;;;;;;10.43;9.07;;;;;;;17.68;65.59;100948.97;4999157;28;20393;-82
2021/09/07 03:20:39;;;;;;;10.43;9.13;;;;;;;17.66;65.66;100940.19;5010345;28;20413;-82
2021/09/07 03:23:04;;;;;;;14.00;9.60;;;;;;;17.61;65.83;100938.31;4996627;28;20433;-82
2021/09/07 03:25:30;;;;;;;10.38;9.25;;;;;;;17.62;65.83;100947.31;4994556;28;21104;-82
2021/09/07 03:27:56;;;;;;;10.90;9.82;;;;;;;17.66;65.89;100939.38;5005788;28;20451;-82
2021/09/07 03:30:22;;;;;;;10.68;9.60;;;;;;;17.65;65.59;100944.03;5009458;28;20423;-82
2021/09/07 03:32:48;;;;;;;12.00;10.70;;;;;;;17.59;65.43;100936.94;5003894;28;20896;-82
2021/09/07 03:35:13;;;;;;;11.70;9.93;;;;;;;17.55;65.59;100941.31;5005014;28;20468;-82
2021/09/07 03:37:39;;;;;;;10.43;9.43;;;;;;;17.52;65.33;100934.44;5006590;28;20461;-82
2021/09/07 03:40:05;;;;;;;10.27;9.15;;;;;;;17.51;65.23;100937.47;4983276;28;20392;-82
2021/09/07 03:42:34;;;;;;;10.38;9.27;;;;;;;17.50;65.51;100935.84;5000057;28;20383;-82
2021/09/07 03:45:04;;;;;;;10.55;9.45;;;;;;;17.47;65.80;100934.47;4995346;28;20407;-82
2021/09/07 03:47:29;;;;;;;12.32;9.95;;;;;;;17.47;65.98;100934.47;4991994;28;20545;-82
2021/09/07 03:49:54;;;;;;;9.80;8.73;;;;;;;17.46;66.09;100935.56;4991670;28;20504;-82
2021/09/07 03:52:20;;;;;;;10.17;9.17;;;;;;;17.47;66.03;100926.25;4991955;28;20750;-82
2021/09/07 03:54:48;;;;;;;10.60;9.57;;;;;;;17.49;66.25;100935.00;5000856;28;20772;-82
2021/09/07 03:57:13;;;;;;;10.48;9.38;;;;;;;17.47;66.09;100926.25;4994430;28;20396;-83
2021/09/07 03:59:38;;;;;;;10.80;9.27;;;;;;;17.46;65.99;100923.78;4994779;28;20407;-82
2021/09/07 04:02:04;;;;;;;10.65;9.13;;;;;;;17.46;65.76;100926.53;5004394;28;20420;-82
2021/09/07 04:04:29;;;;;;;12.03;9.53;;;;;;;17.44;65.80;100929.56;5008619;28;20390;-82
2021/09/07 04:06:54;;;;;;;12.83;9.50;;;;;;;17.44;65.72;100926.81;5011613;28;20383;-82
2021/09/07 04:09:22;;;;;;;11.67;9.37;;;;;;;17.41;65.81;100927.38;5016272;28;20405;-82
2021/09/07 04:11:47;;;;;;;10.93;9.32;;;;;;;17.38;65.91;100929.84;5015386;28;20412;-82
2021/09/07 04:14:12;;;;;;;11.48;9.20;;;;;;;17.40;66.07;100933.13;5000515;28;20398;-82
2021/09/07 04:16:38;;;;;;;10.57;9.43;;;;;;;17.38;66.07;100932.59;5011545;28;20447;-82
2021/09/07 04:19:03;;;;;;;11.63;9.63;;;;;;;17.41;66.36;100938.34;5000804;28;20468;-82
2021/09/07 04:21:28;;;;;;;12.43;10.05;;;;;;;17.43;66.41;100946.25;5005459;28;20493;-82
2021/09/07 04:23:54;;;;;;;11.10;9.10;;;;;;;17.43;66.28;100941.59;5017715;28;20397;-82
2021/09/07 04:26:19;;;;;;;11.80;10.10;;;;;;;17.44;66.47;100939.69;5013773;28;20400;-82
2021/09/07 04:28:45;;;;;;;12.00;9.70;;;;;;;17.44;66.36;100940.53;4996531;28;20418;-82
2021/09/07 04:31:10;;;;;;;10.20;9.20;;;;;;;17.45;66.66;100933.13;5008171;28;20426;-82
2021/09/07 04:33:35;;;;;;;13.50;11.33;;;;;;;17.46;67.13;100941.06;5020789;28;20421;-82
2021/09/07 04:36:01;;;;;;;13.13;11.83;;;;;;;17.48;67.62;100940.78;5014070;28;20404;-82
2021/09/07 04:38:26;;;;;;;13.30;11.80;;;;;;;17.48;67.83;100946.25;4994221;28;20878;-82
2021/09/07 04:40:51;;;;;;;14.17;12.40;;;;;;;17.60;68.00;100950.38;5000547;28;20456;-82
2021/09/07 04:43:17;;;;;;;15.18;13.68;;;;;;;17.53;68.39;100943.50;4995286;28;20461;-82
2021/09/07 04:45:42;;;;;;;13.13;11.87;;;;;;;17.62;68.09;100937.19;4994670;28;20434;-82
2021/09/07 04:48:07;;;;;;;15.07;12.23;;;;;;;17.67;68.00;100943.75;5018547;28;20409;-82
2021/09/07 04:50:33;;;;;;;15.07;11.30;;;;;;;17.67;67.09;100936.34;4994204;28;20444;-82
2021/09/07 04:52:58;;;;;;;12.70;11.33;;;;;;;17.67;66.64;100935.53;5009364;28;20435;-83
2021/09/07 04:55:23;;;;;;;14.40;10.07;;;;;;;17.59;65.38;100948.72;5010213;28;20396;-83
2021/09/07 04:57:49;;;;;;;12.80;8.97;;;;;;;17.49;65.24;100945.97;5006934;28;20760;-82
2021/09/07 05:00:15;;;;;;;15.70;9.70;;;;;;;17.40;65.04;100952.31;4999440;28;20415;-83
2021/09/07 05:02:40;;;;;;;16.15;10.25;;;;;;;17.31;64.99;100956.72;5005295;28;20394;-83
2021/09/07 05:05:07;;;;;;;15.03;10.27;;;;;;;17.27;65.07;100963.84;5001517;28;20394;-82
2021/09/07 05:07:33;;;;;;;10.75;9.15;;;;;;;17.23;65.06;100969.03;5008693;28;20404;-82
2021/09/07 05:09:58;;;;;;;11.38;9.38;;;;;;;17.23;65.32;100963.56;4993752;28;20452;-82
2021/09/07 05:12:26;;;;;;;13.17;9.30;;;;;;;17.21;65.32;100962.22;5000526;28;20394;-82
2021/09/07 05:14:51;;;;;;;14.30;9.43;;;;;;;17.19;65.37;100961.69;5005906;28;20408;-82
2021/09/07 05:17:17;;;;;;;12.90;9.03;;;;;;;17.22;65.35;100969.34;4997716;28;20769;-82
2021/09/07 05:19:42;;;;;;;13.77;9.67;;;;;;;17.24;65.43;100972.63;5003154;28;20491;-83
2021/09/07 05:22:07;;;;;;;14.50;9.60;;;;;;;17.22;65.63;100969.34;5021332;28;20413;-82
2021/09/07 05:24:33;;;;;;;13.00;9.57;;;;;;;17.14;66.14;100967.97;4998434;28;20453;-82
2021/09/07 05:26:58;;;;;;;16.00;10.83;;;;;;;17.16;66.17;100975.94;4996037;28;20458;-82
2021/09/07 05:29:23;;;;;;;16.27;9.90;;;;;;;17.20;66.25;100969.59;5010147;28;20393;-82
2021/09/07 05:31:49;;;;;;;13.57;10.07;;;;;;;17.26;66.48;100973.16;4997379;28;20419;-83
2021/09/07 05:34:14;;;;;;;16.50;9.93;;;;;;;17.31;66.38;100975.91;5014159;28;20422;-82
2021/09/07 05:36:40;;;;;;;12.73;10.45;;;;;;;17.35;66.56;100977.81;4999887;28;20448;-82
2021/09/07 05:39:05;;;;;;;14.13;10.87;;;;;;;17.45;66.57;100979.72;4995616;28;20411;-83
2021/09/07 05:41:30;;;;;;;14.75;11.27;;;;;;;17.50;66.48;100976.94;5012785;28;20405;-83
2021/09/07 05:43:56;;;;;;;14.07;10.40;;;;;;;17.56;66.42;100978.59;5005006;28;20917;-83
2021/09/07 05:46:21;;;;;;;17.87;11.07;;;;;;;17.57;66.15;100981.06;5010060;28;20405;-82
2021/09/07 05:48:46;;;;;;;12.37;10.50;;;;;;;17.66;66.34;100980.47;5001781;28;20982;-83
2021/09/07 05:51:12;;;;;;;15.00;10.70;;;;;;;17.72;65.85;100982.94;5006935;28;20897;-82
2021/09/07 05:53:39;;;;;;;13.05;11.07;;;;;;;17.80;65.60;100982.38;4994333;28;20430;-83
2021/09/07 05:56:05;;;;;;;14.88;10.77;;;;;;;17.83;65.57;100981.81;5007491;28;20400;-83
2021/09/07 05:58:30;;;;;;;12.80;10.52;;;;;;;17.89;65.44;100988.06;5005698;28;20450;-81
2021/09/07 06:00:55;;;;;;;11.83;10.53;;;;;;;17.93;65.56;100989.16;5005897;28;20446;-82
2021/09/07 06:03:21;;;;;;;14.10;10.27;;;;;;;17.95;65.54;100989.69;5002125;28;20416;-82
2021/09/07 06:05:46;;;;;;;10.93;9.90;;;;;;;17.95;65.73;100997.91;5005415;28;20966;-81
2021/09/07 06:08:11;;;;;;;11.67;9.93;;;;;;;17.97;65.61;100996.56;5007657;28;20404;-84
2021/09/07 06:10:36;;;;;;;11.33;10.10;;;;;;;17.97;65.46;100995.72;4993646;28;20908;-81
2021/09/07 06:13:05;;;;;;;12.23;9.82;;;;;;;18.01;65.76;100994.06;5000105;28;20412;-84
2021/09/07 06:15:30;;;;;;;13.20;9.82;;;;;;;18.02;65.31;100990.22;5004120;28;20410;-83
2021/09/07 06:17:55;;;;;;;13.07;10.17;;;;;;;18.05;64.96;100997.88;5009924;28;20493;-83
2021/09/07 06:20:23;;;;;;;14.50;9.70;;;;;;;18.09;64.66;100997.03;5015079;28;20501;-83
2021/09/07 06:22:48;;;;;;;12.68;9.68;;;;;;;18.15;64.34;101000.56;5004619;28;20465;-84
2021/09/07 06:25:13;;;;;;;11.40;10.30;;;;;;;18.19;64.43;101001.66;5002856;28;20414;-82
2021/09/07 06:27:39;;;;;;;10.40;9.35;;;;;;;18.10;64.99;101008.84;5004655;28;20400;-82
2021/09/07 06:30:05;;;;;;;14.00;10.13;;;;;;;18.10;65.29;101006.09;5005950;28;20962;-82
2021/09/07 06:32:31;;;;;;;14.43;10.60;;;;;;;18.10;65.51;101001.44;5013770;28;20406;-82
2021/09/07 06:34:58;;;;;;;12.23;10.93;;;;;;;18.12;66.03;101006.63;5013461;28;20426;-82
2021/09/07 06:37:24;;;;;;;16.48;12.07;;;;;;;18.13;66.56;101006.34;5006245;28;20429;-81
2021/09/07 06:39:49;;;;;;;15.17;11.47;;;;;;;18.12;66.71;101010.19;4999290;28;20477;-82
2021/09/07 06:42:14;;;;;;;13.40;12.00;;;;;;;18.13;66.79;101011.00;5002345;28;20503;-83
2021/09/07 06:44:40;;;;;;;15.10;12.53;;;;;;;18.07;66.85;101026.69;5008185;28;20476;-82
2021/09/07 06:47:05;;;;;;;16.53;12.27;;;;;;;18.19;66.72;101009.06;5021521;28;20405;-82
2021/09/07 06:49:30;;;;;;;13.70;12.27;;;;;;;18.29;66.18;101006.25;5000742;28;20418;-84
2021/09/07 06:51:56;;;;;;;15.97;12.50;;;;;;;18.37;66.17;101013.91;5005460;28;20429;-83
2021/09/07 06:54:21;;;;;;;15.40;12.90;;;;;;;18.43;66.15;101016.34;5008695;28;20425;-88
2021/09/07 06:56:49;;;;;;;17.48;13.02;;;;;;;18.48;66.25;101015.47;5002039;28;20404;-88
2021/09/07 06:59:14;;;;;;;19.50;14.50;;;;;;;18.52;66.49;101020.16;5009068;28;20405;-85
2021/09/07 07:01:40;;;;;;;25.67;14.80;;;;;;;18.54;66.68;101017.94;5009697;28;20412;-84
2021/09/07 07:04:05;;;;;;;19.15;14.73;;;;;;;18.59;66.87;101011.63;4999444;28;21089;-85
2021/09/07 07:06:30;;;;;;;24.73;14.90;;;;;;;18.55;66.99;101018.78;5005839;28;20405;-84
2021/09/07 07:08:56;;;;;;;28.83;15.13;;;;;;;18.60;67.19;101019.56;4999775;28;20398;-85
2021/09/07 07:11:21;;;;;;;21.70;14.57;;;;;;;18.64;67.19;101039.00;5008391;28;20453;-85
2021/09/07 07:13:46;;;;;;;18.13;14.67;;;;;;;18.71;67.06;101028.53;4994099;28;20407;-85
2021/09/07 07:16:12;;;;;;;21.13;14.23;;;;;;;18.79;66.90;101027.94;4998623;28;20421;-84
2021/09/07 07:18:37;;;;;;;26.33;14.40;;;;;;;18.90;66.55;101031.44;4992712;28;20512;-83
2021/09/07 07:21:02;;;;;;;23.17;13.87;;;;;;;19.03;66.35;101034.34;5000244;28;20559;-82
2021/09/07 07:23:28;;;;;;;24.20;14.63;;;;;;;19.17;65.86;101038.06;4998129;28;20404;-82
2021/09/07 07:25:53;;;;;;;17.27;13.30;;;;;;;19.25;65.23;101028.41;4996370;28;20414;-82
2021/09/07 07:28:18;;;;;;;17.03;13.07;;;;;;;19.30;64.99;101036.59;4991196;28;20421;-81
2021/09/07 07:30:44;;;;;;;20.83;13.40;;;;;;;19.37;64.54;101030.75;5003809;28;20896;-82
2021/09/07 07:33:09;;;;;;;17.67;13.40;;;;;;;19.46;64.62;101040.06;5003852;28;20467;-83
2021/09/07 07:35:35;;;;;;;22.33;13.43;;;;;;;19.59;64.06;101045.69;4982453;28;20765;-88
2021/09/07 07:38:01;;;;;;;21.48;13.57;;;;;;;19.69;63.52;101033.78;5000584;28;20431;-84
2021/09/07 07:40:26;;;;;;;19.47;13.43;;;;;;;19.76;63.59;101033.44;4993911;28;20494;-83
2021/09/07 07:42:51;;;;;;;18.80;13.20;;;;;;;19.78;63.40;101042.19;5001666;28;20404;-84
2021/09/07 07:45:17;;;;;;;21.53;13.07;;;;;;;19.76;63.20;101047.19;4992252;28;20420;-84
2021/09/07 07:47:42;;;;;;;20.33;12.57;;;;;;;19.76;63.30;101045.22;5007647;28;20436;-84
2021/09/07 07:50:08;;;;;;;22.00;13.33;;;;;;;19.76;63.35;101041.69;4998920;28;20429;-84
2021/09/07 07:52:33;;;;;;;29.15;13.38;;;;;;;19.79;63.52;101052.88;5002023;28;20408;-83
2021/09/07 07:54:58;;;;;;;56.63;17.10;;;;;;;19.88;63.56;101053.09;5010412;28;20746;-83
2021/09/07 07:57:23;;;;;;;20.00;13.00;;;;;;;19.93;62.99;101053.03;5008759;28;20918;-83
2021/09/07 07:59:49;;;;;;;22.47;12.67;;;;;;;20.01;63.11;101055.13;4999538;28;20418;-83
2021/09/07 08:02:14;;;;;;;18.97;12.43;;;;;;;20.14;62.77;101059.94;5005731;28;20401;-84
2021/09/07 08:04:39;;;;;;;22.63;11.37;;;;;;;20.30;62.32;101060.59;5007756;28;20449;-82
2021/09/07 08:07:06;;;;;;;15.57;10.35;;;;;;;20.44;61.03;101058.75;4994055;28;20402;-82
2021/09/07 08:09:31;;;;;;;15.93;11.13;;;;;;;20.50;60.79;101063.91;4994939;28;20794;-82
2021/09/07 08:11:58;;;;;;;19.53;10.13;;;;;;;20.57;60.06;101064.34;4992235;28;20461;-80
2021/09/07 08:14:24;;;;;;;16.02;9.60;;;;;;;20.62;59.55;101064.28;5002685;28;20476;-82
2021/09/07 08:16:49;;;;;;;10.93;9.60;;;;;;;20.70;59.00;101071.88;5000114;28;20508;-81
2021/09/07 08:19:14;;;;;;;12.97;8.90;;;;;;;20.74;58.68;101060.28;5025265;28;20476;-81
2021/09/07 08:21:40;;;;;;;11.93;9.73;;;;;;;20.76;58.37;101072.63;5004494;28;20419;-83
2021/09/07 08:24:06;;;;;;;11.48;9.20;;;;;;;20.82;58.75;101073.34;4998715;28;20408;-82
2021/09/07 08:26:31;;;;;;;12.48;9.52;;;;;;;20.86;58.37;101066.97;4998433;28;20897;-84
2021/09/07 08:28:57;;;;;;;11.80;9.70;;;;;;;20.96;58.24;101077.00;4994396;28;20409;-83
2021/09/07 08:31:22;;;;;;;11.10;9.87;;;;;;;21.01;57.23;101068.69;4991050;28;20457;-82
2021/09/07 08:33:47;;;;;;;11.85;9.00;;;;;;;21.05;57.17;101075.19;4994719;28;20553;-83
2021/09/07 08:36:12;;;;;;;11.90;9.73;;;;;;;21.12;57.44;101076.50;4994964;28;20607;-82
2021/09/07 08:38:38;;;;;;;15.33;9.83;;;;;;;21.20;57.63;101064.81;5010292;28;20947;-80
2021/09/07 08:41:03;;;;;;;14.57;9.27;;;;;;;21.16;57.37;101062.94;5004319;28;20897;-81
2021/09/07 08:43:29;;;;;;;16.65;9.35;;;;;;;21.16;57.58;101068.44;4992548;28;20434;-81
2021/09/07 08:45:56;;;;;;;16.30;9.90;;;;;;;21.16;57.88;101069.28;5010665;28;20539;-80
2021/09/07 08:48:24;;;;;;;16.40;9.68;;;;;;;21.17;57.88;101070.88;4995208;28;20412;-80
2021/09/07 08:50:51;;;;;;;22.63;10.20;;;;;;;21.25;57.80;101063.88;4997176;28;20422;-81
2021/09/07 08:53:16;;;;;;;13.02;10.10;;;;;;;21.40;57.68;101071.91;5005626;28;20392;-80
2021/09/07 08:55:41;;;;;;;11.53;9.60;;;;;;;21.47;57.40;101069.56;5012405;28;20415;-80
2021/09/07 08:58:07;;;;;;;17.03;10.33;;;;;;;21.57;57.25;101072.13;4997564;28;20391;-80
2021/09/07 09:00:33;;;;;;;14.15;9.95;;;;;;;21.68;57.30;101072.78;5009819;28;20791;-80
2021/09/07 09:03:08;;;;;;;17.25;9.93;;;;;;;21.82;56.73;101075.56;4994805;28;20810;-78
2021/09/07 09:05:34;;;;;;;12.30;9.55;;;;;;;21.97;56.81;101069.78;4995644;28;20801;-79
2021/09/07 09:07:59;;;;;;;17.97;10.47;;;;;;;22.07;55.66;101080.63;5004985;28;20436;-79
2021/09/07 09:10:26;;;;;;;14.70;9.87;;;;;;;22.21;55.28;101076.75;4996862;28;20457;-80
2021/09/07 09:13:12;;;;;;;14.02;10.13;;;;;;;22.30;54.50;101076.81;4997707;28;20410;-79
2021/09/07 09:15:39;;;;;;;12.07;9.73;;;;;;;22.28;54.01;101075.50;5024532;28;20461;-78
2021/09/07 09:18:10;;;;;;;13.60;9.80;;;;;;;22.36;54.15;101064.53;5008164;28;20410;-78
2021/09/07 09:20:39;;;;;;;14.77;9.95;;;;;;;22.73;53.90;101067.06;4996890;28;20399;-79
2021/09/07 09:23:08;;;;;;;11.35;10.05;;;;;;;23.17;52.97;101066.31;5002542;28;20405;-78
2021/09/07 09:25:41;;;;;;;14.53;10.13;;;;;;;23.66;51.57;101070.06;4992371;28;20469;-78
2021/09/07 09:28:19;;;;;;;12.75;9.27;;;;;;;24.02;50.62;101080.97;4996133;28;20402;-78
2021/09/07 09:30:49;;;;;;;14.18;10.40;;;;;;;24.21;50.13;101076.00;5001244;28;20434;-78
2021/09/07 09:33:23;;;;;;;11.87;9.50;;;;;;;24.52;48.60;101073.16;4997601;28;20406;-79
2021/09/07 09:35:55;;;;;;;15.05;9.20;;;;;;;24.77;48.11;101075.97;5011584;28;20401;-79
2021/09/07 09:38:26;;;;;;;14.57;10.38;;;;;;;25.11;48.18;101074.38;4999475;28;20759;-79
2021/09/07 09:40:55;;;;;;;9.65;8.68;;;;;;;25.47;47.64;101082.31;4997554;28;20419;-77
2021/09/07 09:43:38;;;;;;;13.05;8.93;;;;;;;25.79;45.59;101079.81;4995270;28;20438;-79
2021/09/07 09:46:25;;;;;;;11.77;9.40;;;;;;;26.19;45.59;101085.06;4993772;28;20418;-81
2021/09/07 09:48:51;;;;;;;10.98;9.32;;;;;;;26.44;45.08;101073.03;5008092;28;20831;-86
2021/09/07 09:51:20;;;;;;;13.97;9.63;;;;;;;26.78;44.22;101070.00;4992898;28;20418;-78
2021/09/07 09:53:49;;;;;;;11.50;9.73;;;;;;;27.15;43.28;101064.66;4993917;28;20473;-80
2021/09/07 09:56:15;;;;;;;14.60;8.77;;;;;;;27.33;42.80;101055.78;5004561;28;20411;-80
2021/09/07 09:58:40;;;;;;;11.68;9.75;;;;;;;27.65;42.02;101062.53;5007148;28;20463;-80
2021/09/07 10:01:06;;;;;;;10.03;8.97;;;;;;;27.67;42.31;101065.78;4997986;28;20756;-79
2021/09/07 10:03:33;;;;;;;12.90;8.95;;;;;;;28.20;41.43;101067.59;5010988;28;20412;-80
2021/09/07 10:05:59;;;;;;;15.63;8.52;;;;;;;28.60;41.04;101062.09;5000532;28;20418;-80
2021/09/07 10:08:24;;;;;;;12.15;8.50;;;;;;;28.88;40.31;101062.19;4994026;28;20411;-80
2021/09/07 10:11:23;;;;;;;12.87;8.20;;;;;;;29.30;39.93;101063.44;4997492;28;20490;-80
2021/09/07 10:13:52;;;;;;;9.38;8.30;;;;;;;29.63;38.71;101057.56;4991667;28;20411;-80
2021/09/07 10:16:34;;;;;;;12.20;8.38;;;;;;;29.49;38.62;101054.38;5009267;28;20531;-79
2021/09/07 10:19:11;;;;;;;11.60;8.65;;;;;;;29.80;38.04;101057.19;5004508;28;20457;-81
2021/09/07 10:26:40;;;;;;;11.20;7.93;;;;;;;31.69;34.56;101044.25;4997932;28;20413;-80
2021/09/07 10:29:07;;;;;;;9.93;7.80;;;;;;;32.60;32.74;101044.19;5007181;28;20492;-80
2021/09/07 10:31:43;;;;;;;10.48;8.05;;;;;;;33.17;31.95;101042.91;5008783;28;20751;-81
2021/09/07 10:34:08;;;;;;;11.65;8.20;;;;;;;33.39;31.96;101047.56;5008978;28;20419;-81
2021/09/07 10:36:37;;;;;;;9.80;7.63;;;;;;;33.43;31.54;101027.94;5000107;28;20414;-82
2021/09/07 10:39:05;;;;;;;12.95;7.88;;;;;;;33.49;31.40;101034.84;5000044;28;20404;-83
2021/09/07 10:41:45;;;;;;;12.48;8.15;;;;;;;33.22;31.68;101036.97;5003765;28;20411;-80
2021/09/07 10:44:17;;;;;;;8.93;7.97;;;;;;;33.33;31.31;101032.25;5009612;28;20425;-79
2021/09/07 10:46:45;;;;;;;9.85;7.68;;;;;;;33.61;31.68;101030.97;5003749;28;20419;-80
2021/09/07 10:49:25;;;;;;;8.25;7.45;;;;;;;34.24;30.27;101025.09;5005271;28;20409;-82
2021/09/07 10:52:07;;;;;;;11.70;8.02;;;;;;;34.97;29.18;101018.25;5006814;28;20845;-78
2021/09/07 10:54:33;;;;;;;11.02;7.82;;;;;;;34.96;29.39;101022.28;5007834;28;20400;-80
2021/09/07 10:56:59;;;;;;;10.57;7.43;;;;;;;35.12;29.89;101019.94;4999455;28;20874;-79
2021/09/07 10:59:43;;;;;;;9.25;7.90;;;;;;;35.06;29.24;101018.69;5008736;28;20429;-79
2021/09/07 11:02:41;;;;;;;9.27;7.45;;;;;;;34.77;29.84;101011.34;4999578;28;20419;-80
2021/09/07 11:05:25;;;;;;;8.07;7.13;;;;;;;34.64;30.22;101007.25;4996027;28;20406;-79
2021/09/07 11:07:52;;;;;;;8.85;7.95;;;;;;;34.50;30.35;100993.88;5005258;28;20410;-80
2021/09/07 11:10:18;;;;;;;8.23;7.47;;;;;;;33.92;31.26;101002.31;4994341;28;20425;-78
2021/09/07 11:12:51;;;;;;;8.70;7.27;;;;;;;33.34;31.76;100997.34;4996863;28;20489;-80
2021/09/07 11:15:23;;;;;;;10.38;7.50;;;;;;;32.87;32.23;101009.22;4998393;28;20425;-79
2021/09/07 11:17:51;;;;;;;8.27;7.43;;;;;;;32.34;33.91;100999.25;4990245;28;20406;-81
2021/09/07 11:20:17;;;;;;;12.27;7.50;;;;;;;32.06;34.49;100993.25;5004306;28;20409;-80